createdAt,value
2023-02-28T00:00:32.319Z,-6.96
2023-02-28T00:02:59.842Z,-6.96
2023-02-28T00:05:28.389Z,-6.97
2023-02-28T00:07:56.161Z,-6.99
2023-02-28T00:10:25.234Z,-7.02
2023-02-28T00:12:52.555Z,-7.05
2023-02-28T00:15:20.230Z,-7.07
2023-02-28T00:17:47.337Z,-7.10
2023-02-28T00:20:14.623Z,-7.12
2023-02-28T00:22:43.115Z,-7.17
2023-02-28T00:25:11.112Z,-7.19
2023-02-28T00:27:40.342Z,-7.22
2023-02-28T00:30:08.297Z,-7.24
2023-02-28T00:32:35.713Z,-7.26
2023-02-28T00:35:02.909Z,-7.28
2023-02-28T00:37:29.862Z,-7.30
2023-02-28T00:39:56.894Z,-7.32
2023-02-28T00:42:24.333Z,-7.36
2023-02-28T00:44:51.226Z,-7.38
2023-02-28T00:47:18.178Z,-7.37
2023-02-28T00:49:45.120Z,-7.37
2023-02-28T00:52:11.957Z,-7.36
2023-02-28T00:54:38.843Z,-7.35
2023-02-28T00:57:06.147Z,-7.34
2023-02-28T00:59:33.151Z,-7.29
2023-02-28T01:02:00.015Z,-7.24
2023-02-28T01:04:27.113Z,-7.21
2023-02-28T01:06:53.947Z,-7.18
2023-02-28T01:09:20.768Z,-7.21
2023-02-28T01:11:47.749Z,-7.25
2023-02-28T01:14:16.714Z,-7.29
2023-02-28T01:16:43.738Z,-7.27
2023-02-28T01:19:10.720Z,-7.26
2023-02-28T01:21:38.894Z,-7.26
2023-02-28T01:24:06.707Z,-7.30
2023-02-28T01:26:33.753Z,-7.31
2023-02-28T01:29:00.623Z,-7.31
2023-02-28T01:31:27.785Z,-7.30
2023-02-28T01:33:55.883Z,-7.35
2023-02-28T01:36:24.210Z,-7.38
2023-02-28T01:38:51.204Z,-7.41
2023-02-28T01:41:25.583Z,-7.44
2023-02-28T01:43:55.930Z,-7.44
2023-02-28T01:46:22.944Z,-7.43
2023-02-28T01:48:56.213Z,-7.43
2023-02-28T01:51:27.910Z,-7.44
2023-02-28T01:54:00.928Z,-7.43
2023-02-28T01:56:30.808Z,-7.45
2023-02-28T01:58:58.081Z,-7.47
2023-02-28T02:01:27.891Z,-7.50
2023-02-28T02:03:56.767Z,-7.50
2023-02-28T02:06:35.589Z,-7.47
2023-02-28T02:09:03.693Z,-7.48
2023-02-28T02:11:31.419Z,-7.60
2023-02-28T02:14:10.561Z,-7.51
2023-02-28T02:16:38.578Z,-7.48
2023-02-28T02:19:05.387Z,-7.48
2023-02-28T02:21:50.968Z,-7.45
2023-02-28T02:24:20.815Z,-7.45
2023-02-28T02:27:04.563Z,-7.46
2023-02-28T02:29:42.629Z,-7.48
2023-02-28T02:32:40.263Z,-7.48
2023-02-28T02:35:23.762Z,-7.46
2023-02-28T02:37:56.743Z,-7.45
2023-02-28T02:40:26.753Z,-7.44
2023-02-28T02:43:12.253Z,-7.45
2023-02-28T02:45:48.200Z,-7.46
2023-02-28T02:48:19.126Z,-7.46
2023-02-28T02:50:56.614Z,-7.45
2023-02-28T02:53:28.444Z,-7.44
2023-02-28T02:55:56.624Z,-7.43
2023-02-28T02:58:35.648Z,-7.44
2023-02-28T03:01:03.686Z,-7.45
2023-02-28T03:03:32.820Z,-7.46
2023-02-28T03:06:01.287Z,-7.47
2023-02-28T03:08:29.262Z,-7.46
2023-02-28T03:11:03.906Z,-7.48
2023-02-28T03:13:49.094Z,-7.52
2023-02-28T03:16:22.683Z,-7.52
2023-02-28T03:18:49.661Z,-7.53
2023-02-28T03:21:46.052Z,-7.55
2023-02-28T03:24:33.689Z,-7.56
2023-02-28T03:27:22.619Z,-7.55
2023-02-28T03:29:57.887Z,-7.55
2023-02-28T03:32:27.796Z,-7.55
2023-02-28T03:34:59.920Z,-7.54
2023-02-28T03:37:28.498Z,-7.55
2023-02-28T03:40:00.619Z,-7.56
2023-02-28T03:42:30.868Z,-7.57
2023-02-28T03:45:03.970Z,-7.56
2023-02-28T03:47:35.022Z,-7.59
2023-02-28T03:50:08.953Z,-7.61
2023-02-28T03:52:40.254Z,-7.61
2023-02-28T03:55:10.871Z,-7.61
2023-02-28T03:57:44.597Z,-7.61
2023-02-28T04:00:11.761Z,-7.60
2023-02-28T04:02:41.944Z,-7.59
2023-02-28T04:05:09.962Z,-7.60
2023-02-28T04:07:37.036Z,-7.61
2023-02-28T04:10:07.646Z,-7.58
2023-02-28T04:12:34.628Z,-7.58
2023-02-28T04:15:01.826Z,-7.56
2023-02-28T04:17:29.749Z,-7.55
2023-02-28T04:19:58.565Z,-7.52
2023-02-28T04:22:47.791Z,-7.53
2023-02-28T04:25:14.984Z,-7.51
2023-02-28T04:27:42.582Z,-7.50
2023-02-28T04:30:10.299Z,-7.50
2023-02-28T04:32:37.629Z,-7.47
2023-02-28T04:35:04.991Z,-7.47
2023-02-28T04:37:36.317Z,-7.47
2023-02-28T04:40:04.476Z,-7.44
2023-02-28T04:42:36.756Z,-7.42
2023-02-28T04:45:06.951Z,-7.40
2023-02-28T04:47:39.926Z,-7.37
2023-02-28T04:50:10.573Z,-7.35
2023-02-28T04:52:38.821Z,-7.33
2023-02-28T04:55:12.805Z,-7.29
2023-02-28T04:57:46.601Z,-7.25
2023-02-28T05:00:16.533Z,-7.20
2023-02-28T05:02:43.952Z,-7.16
2023-02-28T05:05:11.094Z,-7.13
2023-02-28T05:07:38.281Z,-7.08
2023-02-28T05:10:06.529Z,-7.03
2023-02-28T05:12:33.790Z,-7.00
2023-02-28T05:15:02.335Z,-6.95
2023-02-28T05:17:30.494Z,-6.89
2023-02-28T05:20:09.806Z,-6.79
2023-02-28T05:22:42.128Z,-6.69
2023-02-28T05:25:12.577Z,-6.67
2023-02-28T05:27:39.953Z,-6.67
2023-02-28T05:30:07.712Z,-6.61
2023-02-28T05:32:34.831Z,-6.57
2023-02-28T05:35:01.988Z,-6.51
2023-02-28T05:37:30.083Z,-6.48
2023-02-28T05:39:57.140Z,-6.45
2023-02-28T05:42:24.203Z,-6.43
2023-02-28T05:44:51.448Z,-6.38
2023-02-28T05:47:18.582Z,-6.33
2023-02-28T05:49:45.755Z,-6.29
2023-02-28T05:52:12.892Z,-6.26
2023-02-28T05:54:39.920Z,-6.20
2023-02-28T05:57:15.499Z,-6.13
2023-02-28T05:59:49.829Z,-6.07
2023-02-28T06:02:17.714Z,-6.04
2023-02-28T06:04:45.136Z,-6.00
2023-02-28T06:07:12.482Z,-5.99
2023-02-28T06:09:39.253Z,-5.98
2023-02-28T06:12:08.166Z,-5.96
2023-02-28T06:14:35.520Z,-5.91
2023-02-28T06:17:03.815Z,-5.89
2023-02-28T06:19:31.635Z,-5.83
2023-02-28T06:21:59.563Z,-5.77
2023-02-28T06:24:29.184Z,-5.72
2023-02-28T06:26:56.229Z,-5.64
2023-02-28T06:29:23.251Z,-5.55
2023-02-28T06:31:53.781Z,-5.49
2023-02-28T06:34:21.252Z,-5.43
2023-02-28T06:36:48.492Z,-5.37
2023-02-28T06:39:15.652Z,-5.28
2023-02-28T06:41:54.269Z,-5.20
2023-02-28T06:44:22.141Z,-5.07
2023-02-28T06:46:49.272Z,-4.91
2023-02-28T06:49:16.638Z,-4.77
2023-02-28T06:51:47.459Z,-4.63
2023-02-28T06:54:14.642Z,-4.52
2023-02-28T06:56:41.492Z,-4.45
2023-02-28T06:59:08.383Z,-4.35
2023-02-28T07:02:10.788Z,-4.27
2023-02-28T07:04:38.077Z,-4.18
2023-02-28T07:07:05.151Z,-4.14
2023-02-28T07:09:32.234Z,-4.10
2023-02-28T07:15:59.743Z,-3.91
2023-02-28T07:18:27.107Z,-3.87
2023-02-28T07:20:54.428Z,-3.92
2023-02-28T07:23:21.814Z,-3.87
2023-02-28T07:25:49.146Z,-3.78
2023-02-28T07:28:16.206Z,-3.69
2023-02-28T07:30:43.354Z,-3.62
2023-02-28T07:33:11.305Z,-3.59
2023-02-28T07:35:38.379Z,-3.56
2023-02-28T07:38:05.306Z,-3.50
2023-02-28T07:40:32.352Z,-3.44
2023-02-28T07:42:59.999Z,-3.38
2023-02-28T07:45:27.156Z,-3.30
2023-02-28T07:47:54.176Z,-3.30
2023-02-28T07:50:21.092Z,-3.25
2023-02-28T07:52:47.890Z,-3.20
2023-02-28T07:55:15.156Z,-3.16
2023-02-28T07:57:41.972Z,-3.09
2023-02-28T08:00:15.757Z,-2.99
2023-02-28T08:02:42.664Z,-2.88
2023-02-28T08:05:09.597Z,-2.79
2023-02-28T08:07:36.459Z,-2.68
2023-02-28T08:10:03.968Z,-2.62
2023-02-28T08:12:30.728Z,-2.53
2023-02-28T08:14:57.521Z,-2.39
2023-02-28T08:17:24.405Z,-2.29
2023-02-28T08:19:51.352Z,-2.24
2023-02-28T08:22:18.213Z,-2.19
2023-02-28T08:24:45.097Z,-2.16
2023-02-28T08:27:11.974Z,-2.17
2023-02-28T08:29:39.330Z,-2.14
2023-02-28T08:32:09.244Z,-2.12
2023-02-28T08:34:41.642Z,-2.09
2023-02-28T08:37:08.566Z,-2.00
2023-02-28T08:39:39.231Z,-1.82
2023-02-28T08:42:16.710Z,-1.70
2023-02-28T08:44:43.824Z,-1.64
2023-02-28T08:47:10.804Z,-1.67
2023-02-28T08:49:50.802Z,-1.77
2023-02-28T08:52:17.841Z,-1.87
2023-02-28T08:54:44.630Z,-1.95
2023-02-28T08:57:11.539Z,-1.95
2023-02-28T08:59:38.430Z,-2.05
2023-02-28T09:02:09.734Z,-2.13
2023-02-28T09:04:36.710Z,-2.12
2023-02-28T09:07:03.572Z,-2.09
2023-02-28T09:09:31.370Z,-2.08
2023-02-28T09:11:58.742Z,-2.04
2023-02-28T09:14:25.749Z,-1.98
2023-02-28T09:16:52.744Z,-1.93
2023-02-28T09:19:19.787Z,-1.87
2023-02-28T09:21:46.832Z,-1.81
2023-02-28T09:24:16.375Z,-1.76
2023-02-28T09:26:56.332Z,-1.71
2023-02-28T09:29:30.670Z,-1.75
2023-02-28T09:32:01.132Z,-1.76
2023-02-28T09:34:28.726Z,-1.77
2023-02-28T09:36:56.205Z,-1.78
2023-02-28T09:39:23.563Z,-1.78
2023-02-28T09:41:52.905Z,-1.80
2023-02-28T09:44:41.573Z,-1.87
2023-02-28T09:47:26.887Z,-1.84
2023-02-28T09:49:53.945Z,-1.85
2023-02-28T09:52:24.789Z,-1.83
2023-02-28T09:54:51.659Z,-1.75
2023-02-28T09:57:18.408Z,-1.74
2023-02-28T09:59:45.287Z,-1.79
2023-02-28T10:02:30.897Z,-1.82
2023-02-28T10:05:04.147Z,-1.84
2023-02-28T10:07:44.189Z,-1.85
2023-02-28T10:10:23.222Z,-1.83
2023-02-28T10:12:55.160Z,-1.80
2023-02-28T10:15:23.814Z,-1.78
2023-02-28T10:18:06.222Z,-1.76
2023-02-28T10:20:36.865Z,-1.78
2023-02-28T10:23:12.749Z,-1.79
2023-02-28T10:25:40.399Z,-1.84
2023-02-28T10:28:10.269Z,-1.82
2023-02-28T10:30:48.605Z,-1.74
2023-02-28T10:33:19.429Z,-1.74
2023-02-28T10:35:46.303Z,-1.72
2023-02-28T10:38:22.087Z,-1.72
2023-02-28T10:40:49.444Z,-1.76
2023-02-28T10:43:16.525Z,-1.77
2023-02-28T10:46:00.805Z,-1.77
2023-02-28T10:48:33.254Z,-1.84
2023-02-28T10:51:00.777Z,-1.86
2023-02-28T10:53:57.563Z,-1.87
2023-02-28T10:56:29.866Z,-1.88
2023-02-28T10:58:57.482Z,-1.87
2023-02-28T11:01:28.553Z,-1.90
2023-02-28T11:03:55.496Z,-1.91
2023-02-28T11:06:28.949Z,-1.88
2023-02-28T11:08:57.049Z,-1.84
2023-02-28T11:11:26.462Z,-1.80
2023-02-28T11:13:55.712Z,-1.83
2023-02-28T11:16:23.184Z,-1.81
2023-02-28T11:18:51.812Z,-1.81
2023-02-28T11:21:28.361Z,-1.84
2023-02-28T11:24:03.362Z,-1.90
2023-02-28T11:26:46.150Z,-1.91
2023-02-28T11:29:32.141Z,-1.90
2023-02-28T11:32:19.313Z,-1.94
2023-02-28T11:34:48.202Z,-1.95
2023-02-28T11:37:20.493Z,-1.98
2023-02-28T11:39:47.786Z,-2.01
2023-02-28T11:42:23.994Z,-2.01
2023-02-28T11:44:57.116Z,-1.96
2023-02-28T11:47:47.291Z,-1.90
2023-02-28T11:50:24.516Z,-1.85
2023-02-28T11:53:00.497Z,-1.85
2023-02-28T11:55:44.062Z,-1.83
2023-02-28T11:58:11.042Z,-1.76
2023-02-28T12:00:38.136Z,-1.71
2023-02-28T12:03:08.303Z,-1.70
2023-02-28T12:05:51.042Z,-1.73
2023-02-28T12:08:28.364Z,-1.79
2023-02-28T12:11:01.736Z,-1.83
2023-02-28T12:13:31.778Z,-1.86
2023-02-28T12:16:11.264Z,-1.85
2023-02-28T12:18:57.009Z,-1.87
2023-02-28T12:21:42.837Z,-1.91
2023-02-28T12:24:20.181Z,-1.96
2023-02-28T12:26:48.636Z,-1.97
2023-02-28T12:29:22.869Z,-1.99
2023-02-28T12:32:03.329Z,-1.98
2023-02-28T12:34:34.546Z,-1.97
2023-02-28T12:37:04.999Z,-1.97
2023-02-28T12:39:48.295Z,-1.97
2023-02-28T12:42:35.222Z,-1.98
2023-02-28T12:45:14.755Z,-1.99
2023-02-28T12:47:47.291Z,-1.99
2023-02-28T12:50:14.790Z,-2.02
2023-02-28T12:52:46.333Z,-2.01
2023-02-28T12:55:16.663Z,-2.02
2023-02-28T12:57:54.262Z,-2.02
2023-02-28T13:00:24.244Z,-2.05
2023-02-28T13:02:57.357Z,-2.08
2023-02-28T13:05:54.830Z,-2.09
2023-02-28T13:16:49.098Z,-2.00
2023-02-28T13:19:31.152Z,-1.98
2023-02-28T13:22:17.008Z,-2.00
2023-02-28T13:25:12.538Z,-2.00
2023-02-28T13:27:42.406Z,-1.95
2023-02-28T13:30:37.281Z,-1.93
2023-02-28T13:36:20.835Z,-1.95
2023-02-28T13:39:03.934Z,-1.95
2023-02-28T13:41:32.751Z,-1.96
2023-02-28T13:44:03.512Z,-1.95
2023-02-28T13:46:31.299Z,-1.94
2023-02-28T13:49:18.777Z,-1.92
2023-02-28T13:51:51.901Z,-1.90
2023-02-28T13:54:41.061Z,-1.89
2023-02-28T13:57:15.204Z,-1.90
2023-02-28T14:00:09.581Z,-1.89
2023-02-28T14:02:43.695Z,-1.85
2023-02-28T14:08:09.701Z,-1.81
2023-02-28T14:10:57.533Z,-1.82
2023-02-28T14:14:38.219Z,-1.81
2023-02-28T14:17:08.688Z,-1.77
2023-02-28T14:19:38.242Z,-1.77
2023-02-28T14:22:28.120Z,-1.75
2023-02-28T14:25:15.979Z,-1.74
2023-02-28T14:27:51.610Z,-1.70
2023-02-28T14:30:18.929Z,-1.68
2023-02-28T14:32:52.261Z,-1.66
2023-02-28T14:35:39.711Z,-1.64
2023-02-28T14:38:10.553Z,-1.64
2023-02-28T14:40:40.040Z,-1.66
2023-02-28T14:43:19.838Z,-1.66
2023-02-28T14:46:07.715Z,-1.68
2023-02-28T14:48:36.176Z,-1.69
2023-02-28T14:51:06.726Z,-1.70
2023-02-28T14:53:39.711Z,-1.71
2023-02-28T14:56:09.533Z,-1.72
2023-02-28T14:58:36.773Z,-1.72
2023-02-28T15:01:05.377Z,-1.72
2023-02-28T15:03:43.127Z,-1.73
2023-02-28T15:09:09.132Z,-1.66
2023-02-28T15:11:42.167Z,-1.63
2023-02-28T15:14:23.101Z,-1.60
2023-02-28T15:16:54.543Z,-1.58
2023-02-28T15:19:33.754Z,-1.55
2023-02-28T15:22:15.296Z,-1.53
2023-02-28T15:24:49.552Z,-1.50
2023-02-28T15:27:18.029Z,-1.49
2023-02-28T15:30:27.211Z,-1.46
2023-02-28T15:33:15.129Z,-1.41
2023-02-28T15:35:42.632Z,-1.37
2023-02-28T15:38:38.827Z,-1.34
2023-02-28T15:41:25.027Z,-1.30
2023-02-28T15:44:12.008Z,-1.27
2023-02-28T15:46:39.364Z,-1.25
2023-02-28T15:49:06.568Z,-1.22
2023-02-28T15:51:59.693Z,-1.22
2023-02-28T15:54:32.120Z,-1.20
2023-02-28T15:57:09.967Z,-1.18
2023-02-28T15:59:38.521Z,-1.16
2023-02-28T16:02:19.296Z,-1.14
2023-02-28T16:05:02.540Z,-1.12
2023-02-28T16:07:38.533Z,-1.11
2023-02-28T16:10:28.213Z,-1.08
2023-02-28T16:13:16.347Z,-1.07
2023-02-28T16:15:44.528Z,-1.06
2023-02-28T16:18:13.293Z,-1.03
2023-02-28T16:20:43.215Z,-1.00
2023-02-28T16:23:16.754Z,-0.98
2023-02-28T16:25:45.003Z,-0.95
2023-02-28T16:28:34.065Z,-0.93
2023-02-28T16:31:04.006Z,-0.88
2023-02-28T16:33:34.616Z,-0.86
2023-02-28T16:36:02.242Z,-0.84
2023-02-28T16:38:29.351Z,-0.82
2023-02-28T16:43:51.550Z,-0.74
2023-02-28T16:46:19.459Z,-0.69
2023-02-28T16:48:52.753Z,-0.68
2023-02-28T16:51:19.979Z,-0.68
2023-02-28T16:53:47.397Z,-0.67
2023-02-28T16:56:16.728Z,-0.65
2023-02-28T16:58:44.166Z,-0.62
2023-02-28T17:01:11.323Z,-0.59
2023-02-28T17:03:38.675Z,-0.56
2023-02-28T17:06:05.896Z,-0.54
2023-02-28T17:08:33.422Z,-0.51
2023-02-28T17:11:01.100Z,-0.47
2023-02-28T17:13:28.122Z,-0.46
2023-02-28T17:15:55.721Z,-0.45
2023-02-28T17:18:23.545Z,-0.44
2023-02-28T17:20:51.129Z,-0.44
2023-02-28T17:23:18.608Z,-0.42
2023-02-28T17:25:57.923Z,-0.41
2023-02-28T17:28:29.867Z,-0.44
2023-02-28T17:30:58.468Z,-0.52
2023-02-28T17:33:26.204Z,-0.68
2023-02-28T17:35:54.254Z,-0.79
2023-02-28T17:38:24.765Z,-0.86
2023-02-28T17:40:52.298Z,-0.91
2023-02-28T17:43:19.411Z,-0.91
2023-02-28T17:45:47.648Z,-0.91
2023-02-28T17:48:14.663Z,-0.89
2023-02-28T17:50:41.820Z,-0.87
2023-02-28T17:53:08.861Z,-0.86
2023-02-28T17:55:36.441Z,-0.82
2023-02-28T17:58:04.379Z,-0.82
2023-02-28T18:00:36.748Z,-0.80
2023-02-28T18:03:04.149Z,-0.77
2023-02-28T18:05:32.008Z,-0.74
2023-02-28T18:07:59.638Z,-0.71
2023-02-28T18:10:28.486Z,-0.68
2023-02-28T18:12:55.427Z,-0.67
2023-02-28T18:15:22.914Z,-0.66
2023-02-28T18:17:50.408Z,-0.67
2023-02-28T18:20:17.866Z,-0.80
2023-02-28T18:22:45.127Z,-1.00
2023-02-28T18:25:15.247Z,-1.25
2023-02-28T18:27:54.328Z,-1.45
2023-02-28T18:30:21.887Z,-1.64
2023-02-28T18:32:48.946Z,-1.79
2023-02-28T18:38:26.896Z,-1.92
2023-02-28T18:40:59.411Z,-1.94
2023-02-28T18:43:41.666Z,-1.94
2023-02-28T18:46:17.318Z,-1.92
2023-02-28T18:48:47.496Z,-1.90
2023-02-28T18:51:26.424Z,-1.84
2023-02-28T19:00:02.178Z,-1.66
2023-02-28T19:02:38.627Z,-1.60
2023-02-28T19:05:06.237Z,-1.55
2023-02-28T19:07:37.284Z,-1.50
2023-02-28T19:10:05.945Z,-1.49
2023-02-28T19:12:38.096Z,-1.46
2023-02-28T19:15:07.949Z,-1.47
2023-02-28T19:18:02.361Z,-1.46
2023-02-28T19:20:29.919Z,-1.44
2023-02-28T19:23:02.068Z,-1.41
2023-02-28T19:25:30.402Z,-1.38
2023-02-28T19:28:02.025Z,-1.38
2023-02-28T19:30:31.637Z,-1.40
2023-02-28T19:33:02.044Z,-1.42
2023-02-28T19:35:30.468Z,-1.43
2023-02-28T19:37:58.921Z,-1.46
2023-02-28T19:40:47.495Z,-1.48
2023-02-28T19:43:25.241Z,-1.50
2023-02-28T19:45:52.676Z,-1.51
2023-02-28T19:51:38.634Z,-1.55
2023-02-28T19:54:09.616Z,-1.54
2023-02-28T19:56:39.044Z,-1.56
2023-02-28T19:59:16.813Z,-1.54
2023-02-28T20:01:49.165Z,-1.55
2023-02-28T20:04:18.175Z,-1.60
2023-02-28T20:06:45.487Z,-1.62
2023-02-28T20:09:26.895Z,-1.65
2023-02-28T20:11:59.557Z,-1.65
2023-02-28T20:14:26.826Z,-1.67
2023-02-28T20:16:57.154Z,-1.70
2023-02-28T20:19:25.231Z,-1.75
2023-02-28T20:21:53.022Z,-1.78
2023-02-28T20:24:26.071Z,-1.86
2023-02-28T20:26:53.732Z,-1.96
2023-02-28T20:29:21.167Z,-2.04
2023-02-28T20:31:48.370Z,-2.12
2023-02-28T20:34:18.227Z,-2.20
2023-02-28T20:36:46.088Z,-2.31
2023-02-28T20:39:14.991Z,-2.38
2023-02-28T20:41:43.254Z,-2.44
2023-02-28T20:46:55.892Z,-2.54
2023-02-28T20:49:27.537Z,-2.58
2023-02-28T20:55:06.326Z,-2.66
2023-02-28T21:03:05.026Z,-2.88
2023-02-28T21:05:35.484Z,-2.90
2023-02-28T21:08:05.936Z,-2.96
2023-02-28T21:10:39.805Z,-2.98
2023-02-28T21:13:06.835Z,-3.03
2023-02-28T21:15:37.528Z,-3.07
2023-02-28T21:18:11.100Z,-3.12
2023-02-28T21:20:38.315Z,-3.15
2023-02-28T21:23:05.462Z,-3.20
2023-02-28T21:25:33.227Z,-3.23
2023-02-28T21:28:00.668Z,-3.27
2023-02-28T21:33:15.084Z,-3.35
2023-02-28T21:35:42.151Z,-3.37
2023-02-28T21:38:09.126Z,-3.42
2023-02-28T21:40:36.042Z,-3.48
2023-02-28T21:43:03.052Z,-3.49
2023-02-28T21:45:30.002Z,-3.52
2023-02-28T21:47:56.818Z,-3.58
2023-02-28T21:50:23.761Z,-3.63
2023-02-28T21:52:50.675Z,-3.68
2023-02-28T21:55:17.392Z,-3.70
2023-02-28T21:57:44.339Z,-3.75
2023-02-28T22:00:12.166Z,-3.78
2023-02-28T22:02:39.137Z,-3.82
2023-02-28T22:05:06.460Z,-3.84
2023-02-28T22:07:33.343Z,-3.86
2023-02-28T22:10:00.193Z,-3.88
2023-02-28T22:12:29.726Z,-3.90
2023-02-28T22:14:56.676Z,-3.91
2023-02-28T22:17:23.553Z,-3.94
2023-02-28T22:19:50.366Z,-3.97
2023-02-28T22:22:17.165Z,-3.99
2023-02-28T22:24:43.923Z,-4.03
2023-02-28T22:27:10.914Z,-4.07
2023-02-28T22:29:37.833Z,-4.10
2023-02-28T22:32:04.864Z,-4.14
2023-02-28T22:34:31.670Z,-4.16
2023-02-28T22:36:58.622Z,-4.17
2023-02-28T22:39:25.896Z,-4.20
2023-02-28T22:41:54.641Z,-4.23
2023-02-28T22:44:23.052Z,-4.26
2023-02-28T22:46:53.920Z,-4.31
2023-02-28T22:49:21.005Z,-4.34
2023-02-28T22:51:47.853Z,-4.38
2023-02-28T22:54:14.646Z,-4.41
2023-02-28T22:56:41.559Z,-4.43
2023-02-28T22:59:08.436Z,-4.45
2023-02-28T23:01:37.322Z,-4.47
2023-02-28T23:04:04.478Z,-4.49
2023-02-28T23:06:33.280Z,-4.52
2023-02-28T23:09:02.349Z,-4.53
2023-02-28T23:11:34.144Z,-4.56
2023-02-28T23:14:01.090Z,-4.58
2023-02-28T23:16:28.013Z,-4.60
2023-02-28T23:18:55.234Z,-4.63
2023-02-28T23:21:22.776Z,-4.64
2023-02-28T23:23:49.542Z,-4.65
2023-02-28T23:26:16.331Z,-4.66
2023-02-28T23:28:43.086Z,-4.69
2023-02-28T23:31:10.325Z,-4.69
2023-02-28T23:33:37.216Z,-4.72
2023-02-28T23:36:11.472Z,-4.72
2023-02-28T23:38:39.445Z,-4.73
2023-02-28T23:41:07.070Z,-4.73
2023-02-28T23:43:33.916Z,-4.76
2023-02-28T23:46:00.930Z,-4.78
2023-02-28T23:48:27.947Z,-4.79
2023-02-28T23:50:58.336Z,-4.81
2023-02-28T23:53:25.098Z,-4.83
2023-02-28T23:55:51.924Z,-4.84
2023-02-28T23:58:18.778Z,-4.87
